createdAt,value
2023-08-13T05:25:57.027Z,2.85
2023-08-13T05:31:04.375Z,2.25
2023-08-13T05:36:07.947Z,2.13
2023-08-13T05:41:10.738Z,2.10
2023-08-13T05:46:13.556Z,1.98
2023-08-13T05:51:17.146Z,2.10
2023-08-13T05:56:19.800Z,2.10
2023-08-13T06:01:22.448Z,1.70
2023-08-13T06:06:25.165Z,2.15
2023-08-13T06:11:27.814Z,2.20
2023-08-13T06:16:30.623Z,1.67
2023-08-13T06:21:33.339Z,1.77
2023-08-13T06:26:36.654Z,1.85
2023-08-13T06:31:43.343Z,2.10
2023-08-13T06:36:46.323Z,1.77
2023-08-13T06:41:48.973Z,2.00
2023-08-13T06:46:53.959Z,1.90
2023-08-13T06:51:56.771Z,2.83
2023-08-13T06:56:59.649Z,12.20
2023-08-13T07:02:02.408Z,4.60
2023-08-13T07:07:05.300Z,2.50
2023-08-13T07:12:08.101Z,2.15
2023-08-13T07:17:10.702Z,1.90
2023-08-13T07:22:14.634Z,2.35
2023-08-13T07:27:17.871Z,1.98
2023-08-13T07:32:20.919Z,1.83
2023-08-13T07:37:25.163Z,1.88
2023-08-13T07:42:28.891Z,2.00
2023-08-13T07:47:31.545Z,2.00
2023-08-13T07:52:35.565Z,1.98
2023-08-13T07:57:38.233Z,1.98
2023-08-13T08:02:41.394Z,2.92
2023-08-13T08:07:44.043Z,2.88
2023-08-13T08:12:46.759Z,2.00
2023-08-13T08:17:49.618Z,2.25
2023-08-13T08:22:52.922Z,5.75
2023-08-13T08:27:55.567Z,2.20
2023-08-13T08:32:58.321Z,2.40
2023-08-13T08:38:01.216Z,2.25
2023-08-13T08:43:04.032Z,2.03
2023-08-13T08:48:08.112Z,1.88
2023-08-13T08:53:11.603Z,2.00
2023-08-13T08:58:14.300Z,1.90
2023-08-13T09:03:17.702Z,1.80
2023-08-13T09:08:20.527Z,1.92
2023-08-13T09:13:23.539Z,2.30
2023-08-13T09:18:26.341Z,1.92
2023-08-13T09:23:28.987Z,2.00
2023-08-13T09:28:31.668Z,2.42
2023-08-13T09:33:34.376Z,2.00
2023-08-13T09:38:37.298Z,2.03
2023-08-13T09:43:40.980Z,2.10
2023-08-13T09:48:44.860Z,1.73
2023-08-13T09:53:53.973Z,2.00
2023-08-13T09:58:56.985Z,1.80
2023-08-13T10:04:01.122Z,2.15
2023-08-13T10:09:03.965Z,2.00
2023-08-13T10:14:06.633Z,1.80
2023-08-13T10:19:10.101Z,1.77
2023-08-13T10:24:13.517Z,2.10
2023-08-13T10:29:20.406Z,1.85
2023-08-13T10:34:42.174Z,1.80
2023-08-13T10:39:46.877Z,2.08
2023-08-13T10:44:49.542Z,2.38
2023-08-13T10:49:52.234Z,1.92
2023-08-13T10:54:59.042Z,1.98
2023-08-13T11:00:03.971Z,1.90
2023-08-13T11:05:07.651Z,2.00
2023-08-13T11:10:17.358Z,1.75
2023-08-13T11:15:20.057Z,1.92
2023-08-13T11:20:22.968Z,2.42
2023-08-13T11:25:27.804Z,2.00
2023-08-13T11:30:30.504Z,1.90
2023-08-13T11:35:34.104Z,1.70
2023-08-13T11:40:38.681Z,2.22
2023-08-13T11:45:42.740Z,2.20
2023-08-13T11:50:56.273Z,1.88
2023-08-13T11:56:04.918Z,1.90
2023-08-13T12:01:07.922Z,2.10
2023-08-13T12:06:12.592Z,1.77
2023-08-13T12:11:15.969Z,1.83
2023-08-13T12:16:18.566Z,2.00
2023-08-13T12:21:21.249Z,1.80
2023-08-13T12:26:23.986Z,2.00
2023-08-13T12:31:27.984Z,1.98
2023-08-13T12:36:30.755Z,2.20
2023-08-13T12:41:39.913Z,1.92
2023-08-13T12:46:43.088Z,5.32
2023-08-13T12:51:45.775Z,4.15
2023-08-13T12:56:48.513Z,2.80
2023-08-13T13:01:51.176Z,2.72
2023-08-13T13:06:53.842Z,2.55
2023-08-13T13:11:56.497Z,2.47
2023-08-13T13:16:59.367Z,2.00
2023-08-13T13:22:02.608Z,1.85
2023-08-13T13:27:05.734Z,1.85
2023-08-13T13:32:08.471Z,1.52
2023-08-13T13:37:11.555Z,2.25
2023-08-13T13:42:14.456Z,1.80
2023-08-13T13:47:17.425Z,2.30
2023-08-13T13:52:20.424Z,2.03
2023-08-13T13:57:25.163Z,1.90
2023-08-13T14:02:27.956Z,1.55
2023-08-13T14:07:30.965Z,1.80
2023-08-13T14:12:33.756Z,1.70
2023-08-13T14:17:36.447Z,1.90
2023-08-13T14:22:39.097Z,1.88
2023-08-13T14:27:41.719Z,1.95
2023-08-13T14:32:45.245Z,3.72
2023-08-13T14:37:47.918Z,2.10
2023-08-13T14:42:50.545Z,2.47
2023-08-13T14:47:53.236Z,1.88
2023-08-13T14:52:55.948Z,2.20
2023-08-13T14:57:58.623Z,1.92
2023-08-13T15:03:01.474Z,2.20
2023-08-13T15:08:04.519Z,1.75
2023-08-13T15:13:07.280Z,2.13
2023-08-13T15:18:10.054Z,1.85
2023-08-13T15:23:12.817Z,2.25
2023-08-13T15:28:15.701Z,3.33
2023-08-13T15:33:18.352Z,1.90
2023-08-13T15:38:23.082Z,1.85
2023-08-13T15:43:26.130Z,2.10
2023-08-13T15:48:29.409Z,1.88
2023-08-13T15:53:32.187Z,1.73
2023-08-13T15:58:37.246Z,2.03
2023-08-13T16:03:41.442Z,1.90
2023-08-13T16:08:45.199Z,1.80
2023-08-13T16:13:47.855Z,2.33
2023-08-13T16:18:50.515Z,2.30
2023-08-13T16:24:04.693Z,4.55
2023-08-13T16:29:15.629Z,26.73
2023-08-13T16:34:18.307Z,25.05
2023-08-13T16:39:20.936Z,13.25
2023-08-13T16:44:24.458Z,5.63
2023-08-13T16:49:27.454Z,22.00
2023-08-13T16:54:30.103Z,12.30
2023-08-13T16:59:32.823Z,3.75
2023-08-13T17:04:35.487Z,6.82
2023-08-13T17:09:38.132Z,3.50
2023-08-13T17:14:40.776Z,2.58
2023-08-13T17:19:43.438Z,2.53
2023-08-13T17:24:46.113Z,2.45
2023-08-13T17:29:48.831Z,2.28
2023-08-13T17:34:51.534Z,2.20
2023-08-13T17:39:54.238Z,2.35
2023-08-13T17:44:57.044Z,2.13
2023-08-13T17:49:59.766Z,2.92
2023-08-13T17:55:02.479Z,2.30
2023-08-13T18:00:06.814Z,5.18
2023-08-13T18:05:18.359Z,4.43
2023-08-13T18:10:21.195Z,2.42
2023-08-13T18:15:24.484Z,2.40
2023-08-13T18:20:27.418Z,2.78
2023-08-13T18:25:30.203Z,2.72
2023-08-13T18:30:32.943Z,2.53
2023-08-13T18:35:35.679Z,2.45
2023-08-13T18:40:38.431Z,2.50
2023-08-13T18:45:41.160Z,2.70
2023-08-13T18:50:43.892Z,5.50
2023-08-13T18:55:48.686Z,3.50
2023-08-13T19:00:51.592Z,3.33
2023-08-13T19:05:54.342Z,2.65
2023-08-13T19:10:59.607Z,3.15
2023-08-13T19:16:02.336Z,3.40
2023-08-13T19:21:05.119Z,3.38
2023-08-13T19:26:07.841Z,4.30
2023-08-13T19:31:10.624Z,4.20
2023-08-13T19:36:14.242Z,4.28
2023-08-13T19:41:16.935Z,4.90
2023-08-13T19:46:19.730Z,5.10
2023-08-13T19:51:22.472Z,5.53
2023-08-13T19:56:26.415Z,6.90
2023-08-13T20:01:29.129Z,7.13
2023-08-13T20:06:31.892Z,6.50
2023-08-13T20:11:34.840Z,7.10
2023-08-13T20:16:38.971Z,13.05
2023-08-13T20:21:49.081Z,7.55
2023-08-13T20:26:52.087Z,6.03
2023-08-13T20:31:54.803Z,5.05
2023-08-13T20:36:58.034Z,5.80
2023-08-13T20:42:01.048Z,5.80
2023-08-13T20:47:03.873Z,4.50
2023-08-13T20:52:06.746Z,4.68
2023-08-13T20:57:09.406Z,4.40
2023-08-13T21:02:12.183Z,4.47
2023-08-13T21:07:14.862Z,4.22
2023-08-13T21:12:17.890Z,4.13
2023-08-13T21:17:20.779Z,4.68
2023-08-13T21:22:23.494Z,4.22
2023-08-13T21:27:26.211Z,4.60
2023-08-13T21:32:28.852Z,4.03
2023-08-13T21:37:33.008Z,3.97
2023-08-13T21:42:35.791Z,3.47
2023-08-13T21:47:38.634Z,4.07
2023-08-13T21:52:41.319Z,4.05
2023-08-13T21:57:44.008Z,3.35
